Time;durP1;ratioP1;P1;durP2;ratioP2;P2;SDS_P1;SDS_P2;PMS_P1;PMS_P2;Temp;Humidity;BMP_temperature;BMP_pressure;BME280_temperature;BME280_humidity;BME280_pressure;Samples;Min_cycle;Max_cycle;Signal;HPM_P1;HPM_P2
2022/08/04 00:02:30;;;;;;;;;;;;;;;;;;5053136;28;19912;-79
2022/08/04 00:05:05;;;;;;;;;;;;;;;;;;5044182;28;19919;-79
2022/08/04 00:07:39;;;;;;;;;;;;;;;;;;5054810;28;19940;-79
2022/08/04 00:10:08;;;;;;;;;;;;;;;;;;5054418;28;19916;-79
2022/08/04 00:12:35;;;;;;;;;;;;;;;;;;5053063;28;20426;-79
2022/08/04 00:15:01;;;;;;;;;;;;;;;;;;5052885;28;19921;-79
2022/08/04 00:17:30;;;;;;;;;;;;;;;;;;5036268;28;20363;-79
2022/08/04 00:19:58;;;;;;;;;;;;;;;;;;5052833;28;19916;-79
2022/08/04 00:22:26;;;;;;;;;;;;;;;;;;5052713;28;20287;-79
2022/08/04 00:24:51;;;;;;;;;;;;;;;;;;5052848;28;19928;-79
2022/08/04 00:27:16;;;;;;;;;;;;;;;;;;5053365;28;20294;-79
2022/08/04 00:29:41;;;;;;;;;;;;;;;;;;5054221;28;19917;-79
2022/08/04 00:32:07;;;;;;;;;;;;;;;;;;5052480;28;19963;-79
2022/08/04 00:34:32;;;;;;;;;;;;;;;;;;5052849;28;19916;-79
2022/08/04 00:36:58;;;;;;;;;;;;;;;;;;5035952;28;19913;-79
2022/08/04 00:39:24;;;;;;;;;;;;;;;;;;5054122;28;19921;-79
2022/08/04 00:42:08;;;;;;;;;;;;;;;;;;5053189;28;20272;-79
2022/08/04 00:44:48;;;;;;;;;;;;;;;;;;5053727;28;20391;-79
2022/08/04 00:47:13;;;;;;;;;;;;;;;;;;5053809;28;19916;-79
2022/08/04 00:49:56;;;;;;;;;;;;;;;;;;5052399;28;19919;-79
2022/08/04 00:52:32;;;;;;;;;;;;;;;;;;5053943;28;19912;-79
2022/08/04 00:54:57;;;;;;;;;;;;;;;;;;5054001;28;19932;-79
2022/08/04 00:57:23;;;;;;;;;;;;;;;;;;5052390;28;19917;-79
2022/08/04 01:00:03;;;;;;;;;;;;;;;;;;5053642;28;19913;-79
2022/08/04 01:02:35;;;;;;;;;;;;;;;;;;5053906;28;19979;-79
2022/08/04 01:05:03;;;;;;;;;;;;;;;;;;5052361;28;20364;-79
2022/08/04 01:07:51;;;;;;;;;;;;;;;;;;5053588;28;19944;-79
2022/08/04 01:10:16;;;;;;;;;;;;;;;;;;5033759;28;19912;-79
2022/08/04 01:12:41;;;;;;;;;;;;;;;;;;5054297;28;19917;-79
2022/08/04 01:15:29;;;;;;;;;;;;;;;;;;5057658;28;19917;-79
2022/08/04 01:17:59;;;;;;;;;;;;;;;;;;5056210;28;19967;-79
2022/08/04 01:20:24;;;;;;;;;;;;;;;;;;5056210;28;19917;-79
2022/08/04 01:23:08;;;;;;;;;;;;;;;;;;5056085;28;19913;-79
2022/08/04 01:25:45;;;;;;;;;;;;;;;;;;5057704;28;20347;-79
2022/08/04 01:28:29;;;;;;;;;;;;;;;;;;5056071;28;19912;-79
2022/08/04 01:31:01;;;;;;;;;;;;;;;;;;5057076;28;20432;-79
2022/08/04 01:33:27;;;;;;;;;;;;;;;;;;5055974;28;19913;-79
2022/08/04 01:35:56;;;;;;;;;;;;;;;;;;5057085;28;19979;-79
2022/08/04 01:38:27;;;;;;;;;;;;;;;;;;5055890;28;19913;-79
2022/08/04 01:40:54;;;;;;;;;;;;;;;;;;5055839;28;19948;-79
2022/08/04 01:43:19;;;;;;;;;;;;;;;;;;5055861;28;19928;-79
2022/08/04 01:45:46;;;;;;;;;;;;;;;;;;5039112;28;19920;-79
2022/08/04 01:48:11;;;;;;;;;;;;;;;;;;5055654;28;19963;-79
2022/08/04 01:50:37;;;;;;;;;;;;;;;;;;5055930;28;19921;-79
2022/08/04 01:53:02;;;;;;;;;;;;;;;;;;5055862;28;20370;-79
2022/08/04 01:55:28;;;;;;;;;;;;;;;;;;5057054;28;19925;-79
2022/08/04 01:57:53;;;;;;;;;;;;;;;;;;5055393;28;19917;-79
2022/08/04 02:00:25;;;;;;;;;;;;;;;;;;5055493;28;19913;-79
2022/08/04 02:02:51;;;;;;;;;;;;;;;;;;5055450;28;19936;-79
2022/08/04 02:05:17;;;;;;;;;;;;;;;;;;5038624;28;20367;-79
2022/08/04 02:07:51;;;;;;;;;;;;;;;;;;5038626;28;20423;-79
2022/08/04 02:10:34;;;;;;;;;;;;;;;;;;5055525;28;19917;-79
2022/08/04 02:12:59;;;;;;;;;;;;;;;;;;5056278;28;19919;-79
2022/08/04 02:15:47;;;;;;;;;;;;;;;;;;5056786;28;20351;-79
2022/08/04 02:18:31;;;;;;;;;;;;;;;;;;5055418;28;19934;-79
2022/08/04 02:20:58;;;;;;;;;;;;;;;;;;5054971;28;19924;-79
2022/08/04 02:23:42;;;;;;;;;;;;;;;;;;5054664;28;19923;-79
2022/08/04 02:26:11;;;;;;;;;;;;;;;;;;5056403;28;19928;-79
2022/08/04 02:28:36;;;;;;;;;;;;;;;;;;5055244;28;20347;-79
2022/08/04 02:31:02;;;;;;;;;;;;;;;;;;5055855;28;19955;-80
2022/08/04 02:33:30;;;;;;;;;;;;;;;;;;5054744;28;19964;-79
2022/08/04 02:35:56;;;;;;;;;;;;;;;;;;5038065;28;20376;-79
2022/08/04 02:38:37;;;;;;;;;;;;;;;;;;5055905;28;19963;-79
2022/08/04 02:41:02;;;;;;;;;;;;;;;;;;5038035;28;19913;-79
2022/08/04 02:43:29;;;;;;;;;;;;;;;;;;5054649;28;19967;-79
2022/08/04 02:45:54;;;;;;;;;;;;;;;;;;5054883;28;19955;-79
2022/08/04 02:48:20;;;;;;;;;;;;;;;;;;5054570;28;19912;-79
2022/08/04 02:50:45;;;;;;;;;;;;;;;;;;5054845;28;19917;-79
2022/08/04 02:53:12;;;;;;;;;;;;;;;;;;5054713;28;20003;-79
2022/08/04 02:55:37;;;;;;;;;;;;;;;;;;5054579;28;19957;-79
2022/08/04 02:58:03;;;;;;;;;;;;;;;;;;5054634;28;19919;-79
2022/08/04 03:00:28;;;;;;;;;;;;;;;;;;5054190;28;19924;-79
2022/08/04 03:02:59;;;;;;;;;;;;;;;;;;5054553;28;19917;-79
2022/08/04 03:05:27;;;;;;;;;;;;;;;;;;5054105;28;20007;-79
2022/08/04 03:08:11;;;;;;;;;;;;;;;;;;5037252;28;19917;-79
2022/08/04 03:10:42;;;;;;;;;;;;;;;;;;5055004;28;20470;-79
2022/08/04 03:13:25;;;;;;;;;;;;;;;;;;5055208;28;19912;-79
2022/08/04 03:15:53;;;;;;;;;;;;;;;;;;5055361;28;20023;-79
2022/08/04 03:18:37;;;;;;;;;;;;;;;;;;5055199;28;19948;-79
2022/08/04 03:21:05;;;;;;;;;;;;;;;;;;5055397;28;19913;-79
2022/08/04 03:24:03;;;;;;;;;;;;;;;;;;5054876;28;20355;-79
2022/08/04 03:26:42;;;;;;;;;;;;;;;;;;5042992;28;20015;-79
2022/08/04 03:29:27;;;;;;;;;;;;;;;;;;5037076;28;20363;-79
2022/08/04 03:31:55;;;;;;;;;;;;;;;;;;5054715;28;20011;-79
2022/08/04 03:34:32;;;;;;;;;;;;;;;;;;5054099;28;19966;-79
2022/08/04 03:37:00;;;;;;;;;;;;;;;;;;5054758;28;19916;-79
2022/08/04 03:39:28;;;;;;;;;;;;;;;;;;5054755;28;19912;-79
2022/08/04 03:41:53;;;;;;;;;;;;;;;;;;5054667;28;20007;-79
2022/08/04 03:44:21;;;;;;;;;;;;;;;;;;5054905;28;19963;-79
2022/08/04 03:46:59;;;;;;;;;;;;;;;;;;5054680;28;20011;-79
2022/08/04 03:49:33;;;;;;;;;;;;;;;;;;5054514;28;20387;-79
2022/08/04 03:55:19;;;;;;;;;;;;;;;;;;5054792;28;19978;-79
2022/08/04 03:57:47;;;;;;;;;;;;;;;;;;5054294;28;19919;-79
2022/08/04 04:00:14;;;;;;;;;;;;;;;;;;5054286;28;19993;-79
2022/08/04 04:02:58;;;;;;;;;;;;;;;;;;5053361;28;19912;-79
2022/08/04 04:05:42;;;;;;;;;;;;;;;;;;5054733;28;20328;-79
2022/08/04 04:08:26;;;;;;;;;;;;;;;;;;5054634;28;19935;-79
2022/08/04 04:11:11;;;;;;;;;;;;;;;;;;5054004;28;20386;-79
2022/08/04 04:13:42;;;;;;;;;;;;;;;;;;5053624;28;19912;-79
2022/08/04 04:16:14;;;;;;;;;;;;;;;;;;5052893;28;20046;-79
2022/08/04 04:18:58;;;;;;;;;;;;;;;;;;5054371;28;19913;-79
2022/08/04 04:21:26;;;;;;;;;;;;;;;;;;5053986;28;19920;-79
2022/08/04 04:24:09;;;;;;;;;;;;;;;;;;5053921;28;19928;-79
2022/08/04 04:26:37;;;;;;;;;;;;;;;;;;5052621;28;20299;-79
2022/08/04 04:29:09;;;;;;;;;;;;;;;;;;5053075;28;19913;-79
2022/08/04 04:32:06;;;;;;;;;;;;;;;;;;5053825;28;19932;-79
2022/08/04 04:34:48;;;;;;;;;;;;;;;;;;5030475;28;19916;-79
2022/08/04 04:37:20;;;;;;;;;;;;;;;;;;5052679;28;19912;-79
2022/08/04 04:40:04;;;;;;;;;;;;;;;;;;5052989;28;19939;-79
2022/08/04 04:42:46;;;;;;;;;;;;;;;;;;5052537;28;19962;-79
2022/08/04 04:45:30;;;;;;;;;;;;;;;;;;5035992;28;19912;-79
2022/08/04 04:47:57;;;;;;;;;;;;;;;;;;5053615;28;19913;-79
2022/08/04 04:50:25;;;;;;;;;;;;;;;;;;5052543;28;19956;-79
2022/08/04 04:52:56;;;;;;;;;;;;;;;;;;5035950;28;20425;-79
2022/08/04 04:55:28;;;;;;;;;;;;;;;;;;5052523;28;19932;-79
2022/08/04 04:57:55;;;;;;;;;;;;;;;;;;5052729;28;19917;-79
2022/08/04 05:00:22;;;;;;;;;;;;;;;;;;5052432;28;20015;-79
2022/08/04 05:03:06;;;;;;;;;;;;;;;;;;5052783;28;19995;-79
2022/08/04 05:05:37;;;;;;;;;;;;;;;;;;5053520;28;20430;-79
2022/08/04 05:08:05;;;;;;;;;;;;;;;;;;5053849;28;19920;-79
2022/08/04 05:10:56;;;;;;;;;;;;;;;;;;5053494;28;20371;-79
2022/08/04 05:13:37;;;;;;;;;;;;;;;;;;5044900;28;19955;-79
2022/08/04 05:16:11;;;;;;;;;;;;;;;;;;5053662;28;19916;-79
2022/08/04 05:18:38;;;;;;;;;;;;;;;;;;5052543;28;19920;-79
2022/08/04 05:21:25;;;;;;;;;;;;;;;;;;5052560;28;20363;-79
2022/08/04 05:23:52;;;;;;;;;;;;;;;;;;5035472;28;19920;-79
2022/08/04 05:26:17;;;;;;;;;;;;;;;;;;5035482;28;19913;-79
2022/08/04 05:28:47;;;;;;;;;;;;;;;;;;5035526;28;19913;-79
2022/08/04 05:31:15;;;;;;;;;;;;;;;;;;5035354;28;19928;-79
2022/08/04 05:33:43;;;;;;;;;;;;;;;;;;5052460;28;19913;-79
2022/08/04 05:36:09;;;;;;;;;;;;;;;;;;5053155;28;20339;-79
2022/08/04 05:38:36;;;;;;;;;;;;;;;;;;5052327;28;20371;-79
2022/08/04 05:41:01;;;;;;;;;;;;;;;;;;5052063;28;19999;-79
2022/08/04 05:43:27;;;;;;;;;;;;;;;;;;5053127;28;20002;-79
2022/08/04 05:45:52;;;;;;;;;;;;;;;;;;5053479;28;19917;-79
2022/08/04 05:48:18;;;;;;;;;;;;;;;;;;5051942;28;19921;-79
2022/08/04 05:50:43;;;;;;;;;;;;;;;;;;5053158;28;20087;-79
2022/08/04 05:53:09;;;;;;;;;;;;;;;;;;5051953;28;20295;-79
2022/08/04 05:55:34;;;;;;;;;;;;;;;;;;5052278;28;19924;-79
2022/08/04 05:57:59;;;;;;;;;;;;;;;;;;5053024;28;19917;-79
2022/08/04 06:00:25;;;;;;;;;;;;;;;;;;5056630;28;20269;-79
2022/08/04 06:02:51;;;;;;;;;;;;;;;;;;5055733;28;19913;-79
2022/08/04 06:05:19;;;;;;;;;;;;;;;;;;5038999;28;19913;-79
2022/08/04 06:07:45;;;;;;;;;;;;;;;;;;5039030;28;19971;-79
2022/08/04 06:10:10;;;;;;;;;;;;;;;;;;5055478;28;20368;-79
2022/08/04 06:12:37;;;;;;;;;;;;;;;;;;5055537;28;19920;-79
2022/08/04 06:15:02;;;;;;;;;;;;;;;;;;5038330;28;19923;-79
2022/08/04 06:17:29;;;;;;;;;;;;;;;;;;5038811;28;19943;-79
2022/08/04 06:19:55;;;;;;;;;;;;;;;;;;5038298;28;20006;-79
2022/08/04 06:22:21;;;;;;;;;;;;;;;;;;5055336;28;19917;-79
2022/08/04 06:24:47;;;;;;;;;;;;;;;;;;5055036;28;19956;-79
2022/08/04 06:27:12;;;;;;;;;;;;;;;;;;5056464;28;19952;-79
2022/08/04 06:29:40;;;;;;;;;;;;;;;;;;5038233;28;19917;-79
2022/08/04 06:32:26;;;;;;;;;;;;;;;;;;5055889;28;19929;-79
2022/08/04 06:34:56;;;;;;;;;;;;;;;;;;5040844;28;19921;-79
2022/08/04 06:37:21;;;;;;;;;;;;;;;;;;5038137;28;20401;-79
2022/08/04 06:39:47;;;;;;;;;;;;;;;;;;5054965;28;19999;-79
2022/08/04 06:42:12;;;;;;;;;;;;;;;;;;5054996;28;20284;-79
2022/08/04 06:44:38;;;;;;;;;;;;;;;;;;5037880;28;19920;-79
2022/08/04 06:47:03;;;;;;;;;;;;;;;;;;5054797;28;20326;-79
2022/08/04 06:49:28;;;;;;;;;;;;;;;;;;5038377;28;19913;-79
2022/08/04 06:51:54;;;;;;;;;;;;;;;;;;5055950;28;19923;-79
2022/08/04 06:54:19;;;;;;;;;;;;;;;;;;5037796;28;19928;-79
2022/08/04 06:56:44;;;;;;;;;;;;;;;;;;5055184;28;19982;-79
2022/08/04 06:59:10;;;;;;;;;;;;;;;;;;5054484;28;19919;-79
2022/08/04 07:01:35;;;;;;;;;;;;;;;;;;5054337;28;19913;-79
2022/08/04 07:04:01;;;;;;;;;;;;;;;;;;5037568;28;19921;-79
2022/08/04 07:06:26;;;;;;;;;;;;;;;;;;5054100;28;20003;-79
2022/08/04 07:08:52;;;;;;;;;;;;;;;;;;5054919;28;19956;-79
2022/08/04 07:11:18;;;;;;;;;;;;;;;;;;5053614;28;20008;-79
2022/08/04 07:13:43;;;;;;;;;;;;;;;;;;5054180;28;20043;-79
2022/08/04 07:16:09;;;;;;;;;;;;;;;;;;5054234;28;19921;-79
2022/08/04 07:18:34;;;;;;;;;;;;;;;;;;5037578;28;19919;-79
2022/08/04 07:20:59;;;;;;;;;;;;;;;;;;5054234;28;19999;-78
2022/08/04 07:23:25;;;;;;;;;;;;;;;;;;5053797;28;20351;-79
2022/08/04 07:25:51;;;;;;;;;;;;;;;;;;5054218;28;19925;-79
2022/08/04 07:28:17;;;;;;;;;;;;;;;;;;5053851;28;19927;-79
2022/08/04 07:30:43;;;;;;;;;;;;;;;;;;5036966;28;19921;-79
2022/08/04 07:33:08;;;;;;;;;;;;;;;;;;5054017;28;19958;-79
2022/08/04 07:35:33;;;;;;;;;;;;;;;;;;5053622;28;20022;-79
2022/08/04 07:37:59;;;;;;;;;;;;;;;;;;5036915;28;19920;-78
2022/08/04 07:40:24;;;;;;;;;;;;;;;;;;5054872;28;19917;-79
2022/08/04 07:42:49;;;;;;;;;;;;;;;;;;5053595;28;19923;-79
2022/08/04 07:45:16;;;;;;;;;;;;;;;;;;5054735;28;19917;-79
2022/08/04 07:47:42;;;;;;;;;;;;;;;;;;5053641;28;19912;-79
2022/08/04 07:50:11;;;;;;;;;;;;;;;;;;5036693;28;19970;-79
2022/08/04 07:52:36;;;;;;;;;;;;;;;;;;5036746;28;20364;-79
2022/08/04 07:55:02;;;;;;;;;;;;;;;;;;5053216;28;20008;-79
2022/08/04 07:57:27;;;;;;;;;;;;;;;;;;5036610;28;19913;-79
2022/08/04 07:59:52;;;;;;;;;;;;;;;;;;5036441;28;19912;-79
2022/08/04 08:02:17;;;;;;;;;;;;;;;;;;5053154;28;19924;-79
2022/08/04 08:04:43;;;;;;;;;;;;;;;;;;5053610;28;19982;-79
2022/08/04 08:07:08;;;;;;;;;;;;;;;;;;5036307;28;20354;-79
2022/08/04 08:09:33;;;;;;;;;;;;;;;;;;5053018;28;19916;-79
2022/08/04 08:11:59;;;;;;;;;;;;;;;;;;5036110;28;19917;-79
2022/08/04 08:14:24;;;;;;;;;;;;;;;;;;5053092;28;19916;-79
2022/08/04 08:16:49;;;;;;;;;;;;;;;;;;5053235;28;20354;-79
2022/08/04 08:19:15;;;;;;;;;;;;;;;;;;5054344;28;19920;-79
2022/08/04 08:21:40;;;;;;;;;;;;;;;;;;5035785;28;19912;-79
2022/08/04 08:24:05;;;;;;;;;;;;;;;;;;5052800;28;20409;-79
2022/08/04 08:26:31;;;;;;;;;;;;;;;;;;5052789;28;19920;-79
2022/08/04 08:28:56;;;;;;;;;;;;;;;;;;5052606;28;19916;-79
2022/08/04 08:31:22;;;;;;;;;;;;;;;;;;5035698;28;19920;-78
2022/08/04 08:33:47;;;;;;;;;;;;;;;;;;5035990;28;19921;-79
2022/08/04 08:36:19;;;;;;;;;;;;;;;;;;5052553;28;19952;-79
2022/08/04 08:39:02;;;;;;;;;;;;;;;;;;5053726;28;19924;-78
2022/08/04 08:41:46;;;;;;;;;;;;;;;;;;5053665;28;20010;-79
2022/08/04 08:44:12;;;;;;;;;;;;;;;;;;5053997;28;19913;-78
2022/08/04 08:46:55;;;;;;;;;;;;;;;;;;5053872;28;19913;-79
2022/08/04 08:49:39;;;;;;;;;;;;;;;;;;5053678;28;19919;-79
2022/08/04 08:52:26;;;;;;;;;;;;;;;;;;5053940;28;19963;-79
2022/08/04 08:55:00;;;;;;;;;;;;;;;;;;5035827;28;19921;-79
2022/08/04 08:57:44;;;;;;;;;;;;;;;;;;5052641;28;19971;-79
2022/08/04 09:00:13;;;;;;;;;;;;;;;;;;5053575;28;19963;-79
2022/08/04 09:02:47;;;;;;;;;;;;;;;;;;5053937;28;19920;-79
2022/08/04 09:05:18;;;;;;;;;;;;;;;;;;5052389;28;19912;-79
2022/08/04 09:07:48;;;;;;;;;;;;;;;;;;5053887;28;19963;-78
2022/08/04 09:10:18;;;;;;;;;;;;;;;;;;5035683;28;20294;-79
2022/08/04 09:12:59;;;;;;;;;;;;;;;;;;5052537;28;20374;-79
2022/08/04 09:15:30;;;;;;;;;;;;;;;;;;5053742;28;20019;-79
2022/08/04 09:18:01;;;;;;;;;;;;;;;;;;5053514;28;19913;-79
2022/08/04 09:20:30;;;;;;;;;;;;;;;;;;5053393;28;19913;-79
2022/08/04 09:23:03;;;;;;;;;;;;;;;;;;5052197;28;19913;-79
2022/08/04 09:25:49;;;;;;;;;;;;;;;;;;5052321;28;19924;-79
2022/08/04 09:28:19;;;;;;;;;;;;;;;;;;5052924;28;19928;-79
2022/08/04 09:30:47;;;;;;;;;;;;;;;;;;5035511;28;19924;-79
2022/08/04 09:33:27;;;;;;;;;;;;;;;;;;5053259;28;20379;-78
2022/08/04 09:36:03;;;;;;;;;;;;;;;;;;5056995;28;19966;-79
2022/08/04 09:38:34;;;;;;;;;;;;;;;;;;5039736;28;20359;-78
2022/08/04 09:41:14;;;;;;;;;;;;;;;;;;5039351;28;19913;-79
2022/08/04 09:43:42;;;;;;;;;;;;;;;;;;5039131;28;19912;-78
2022/08/04 09:46:09;;;;;;;;;;;;;;;;;;5057384;28;20333;-79
2022/08/04 09:49:10;;;;;;;;;;;;;;;;;;5039119;28;19935;-79
2022/08/04 09:51:44;;;;;;;;;;;;;;;;;;5018124;28;19917;-79
2022/08/04 09:54:12;;;;;;;;;;;;;;;;;;5053297;28;19921;-79
2022/08/04 09:56:38;;;;;;;;;;;;;;;;;;5056641;28;19917;-79
2022/08/04 09:59:11;;;;;;;;;;;;;;;;;;5038746;28;19917;-79
2022/08/04 10:01:36;;;;;;;;;;;;;;;;;;5055759;28;19920;-79
2022/08/04 10:04:02;;;;;;;;;;;;;;;;;;5055300;28;19913;-79
2022/08/04 10:06:33;;;;;;;;;;;;;;;;;;5055399;28;19920;-79
2022/08/04 10:09:11;;;;;;;;;;;;;;;;;;5055374;28;19912;-79
2022/08/04 10:11:57;;;;;;;;;;;;;;;;;;5055281;28;19961;-79
2022/08/04 10:14:22;;;;;;;;;;;;;;;;;;5052226;28;20386;-79
2022/08/04 10:17:06;;;;;;;;;;;;;;;;;;5056264;28;19912;-79
2022/08/04 10:19:34;;;;;;;;;;;;;;;;;;5055143;28;19913;-77
2022/08/04 10:22:08;;;;;;;;;;;;;;;;;;5039145;28;20371;-79
2022/08/04 10:24:54;;;;;;;;;;;;;;;;;;5056533;28;19924;-79
2022/08/04 10:27:33;;;;;;;;;;;;;;;;;;5034597;28;19948;-79
2022/08/04 10:30:11;;;;;;;;;;;;;;;;;;5054969;28;20003;-79
2022/08/04 10:32:58;;;;;;;;;;;;;;;;;;5038410;28;19932;-79
2022/08/04 10:35:25;;;;;;;;;;;;;;;;;;5054722;28;19952;-79
2022/08/04 10:38:12;;;;;;;;;;;;;;;;;;5055520;28;19958;-79
2022/08/04 10:41:03;;;;;;;;;;;;;;;;;;5038285;28;20011;-79
2022/08/04 10:43:34;;;;;;;;;;;;;;;;;;5047337;28;20003;-79
2022/08/04 10:46:15;;;;;;;;;;;;;;;;;;5054566;28;20012;-79
2022/08/04 10:48:44;;;;;;;;;;;;;;;;;;5038150;28;19991;-79
2022/08/04 10:51:27;;;;;;;;;;;;;;;;;;5055697;28;19912;-79
2022/08/04 10:53:57;;;;;;;;;;;;;;;;;;5054401;28;19921;-79
2022/08/04 10:56:32;;;;;;;;;;;;;;;;;;5054345;28;19917;-79
2022/08/04 10:58:59;;;;;;;;;;;;;;;;;;5054347;28;20007;-78
2022/08/04 11:01:26;;;;;;;;;;;;;;;;;;5054344;28;19912;-78
2022/08/04 11:03:55;;;;;;;;;;;;;;;;;;5037653;28;20066;-78
2022/08/04 11:06:20;;;;;;;;;;;;;;;;;;5054252;28;19913;-79
2022/08/04 11:09:04;;;;;;;;;;;;;;;;;;5054402;28;19985;-79
2022/08/04 11:11:40;;;;;;;;;;;;;;;;;;5037383;28;20018;-79
2022/08/04 11:14:07;;;;;;;;;;;;;;;;;;5054106;28;19932;-79
2022/08/04 11:16:40;;;;;;;;;;;;;;;;;;5037376;28;20010;-79
2022/08/04 11:19:22;;;;;;;;;;;;;;;;;;5054064;28;20424;-79
2022/08/04 11:21:55;;;;;;;;;;;;;;;;;;5053969;28;20408;-79
2022/08/04 11:24:29;;;;;;;;;;;;;;;;;;5053946;28;20008;-79
2022/08/04 11:26:58;;;;;;;;;;;;;;;;;;5053693;28;19921;-78
2022/08/04 11:29:36;;;;;;;;;;;;;;;;;;5053717;28;20272;-79
2022/08/04 11:32:02;;;;;;;;;;;;;;;;;;5053431;28;19921;-78
2022/08/04 11:34:27;;;;;;;;;;;;;;;;;;5053886;28;19953;-79
2022/08/04 11:36:55;;;;;;;;;;;;;;;;;;5054229;28;19917;-79
2022/08/04 11:39:41;;;;;;;;;;;;;;;;;;5053585;28;19955;-79
2022/08/04 11:42:13;;;;;;;;;;;;;;;;;;5050874;28;19913;-79
2022/08/04 11:44:44;;;;;;;;;;;;;;;;;;5053859;28;19942;-79
2022/08/04 11:47:31;;;;;;;;;;;;;;;;;;5054803;28;20389;-79
2022/08/04 11:50:03;;;;;;;;;;;;;;;;;;5055417;28;20305;-79
2022/08/04 11:52:28;;;;;;;;;;;;;;;;;;5036786;28;20291;-79
2022/08/04 11:54:54;;;;;;;;;;;;;;;;;;5053237;28;19936;-79
2022/08/04 11:57:19;;;;;;;;;;;;;;;;;;5053347;28;19912;-79
2022/08/04 11:59:44;;;;;;;;;;;;;;;;;;5054499;28;20422;-78
2022/08/04 12:02:32;;;;;;;;;;;;;;;;;;5036803;28;19917;-78
2022/08/04 12:04:59;;;;;;;;;;;;;;;;;;5036620;28;19955;-78
2022/08/04 12:07:39;;;;;;;;;;;;;;;;;;5053175;28;19963;-79
2022/08/04 12:10:14;;;;;;;;;;;;;;;;;;5052934;28;19917;-79
2022/08/04 12:12:44;;;;;;;;;;;;;;;;;;5053145;28;19962;-79
2022/08/04 12:15:26;;;;;;;;;;;;;;;;;;5052987;28;19923;-79
2022/08/04 12:17:58;;;;;;;;;;;;;;;;;;5036291;28;19912;-79
2022/08/04 12:20:23;;;;;;;;;;;;;;;;;;5054374;28;19959;-79
2022/08/04 12:22:49;;;;;;;;;;;;;;;;;;5036483;28;19916;-79
2022/08/04 12:25:41;;;;;;;;;;;;;;;;;;5053004;28;19920;-79
2022/08/04 12:28:17;;;;;;;;;;;;;;;;;;5052609;28;19962;-79
2022/08/04 12:30:44;;;;;;;;;;;;;;;;;;5036063;28;20359;-79
2022/08/04 12:33:11;;;;;;;;;;;;;;;;;;5052579;28;20011;-79
2022/08/04 12:35:48;;;;;;;;;;;;;;;;;;5035899;28;20015;-79
2022/08/04 12:38:14;;;;;;;;;;;;;;;;;;5052683;28;19919;-79
2022/08/04 12:40:46;;;;;;;;;;;;;;;;;;5052565;28;19912;-79
2022/08/04 12:43:30;;;;;;;;;;;;;;;;;;5052633;28;19913;-79
2022/08/04 12:46:00;;;;;;;;;;;;;;;;;;5052382;28;20386;-79
2022/08/04 12:48:25;;;;;;;;;;;;;;;;;;5052600;28;19913;-79
2022/08/04 12:50:52;;;;;;;;;;;;;;;;;;5035809;28;20291;-79
2022/08/04 12:53:18;;;;;;;;;;;;;;;;;;5052541;28;19960;-79
2022/08/04 12:55:44;;;;;;;;;;;;;;;;;;5052619;28;20029;-79
2022/08/04 12:58:11;;;;;;;;;;;;;;;;;;5035759;28;19912;-79
2022/08/04 13:00:36;;;;;;;;;;;;;;;;;;5053016;28;20355;-78
2022/08/04 13:03:06;;;;;;;;;;;;;;;;;;5053905;28;19920;-79
2022/08/04 13:05:31;;;;;;;;;;;;;;;;;;5052766;28;19913;-79
2022/08/04 13:07:56;;;;;;;;;;;;;;;;;;5038296;28;19978;-79
2022/08/04 13:10:22;;;;;;;;;;;;;;;;;;5056448;28;19917;-79
2022/08/04 13:12:57;;;;;;;;;;;;;;;;;;5056384;28;20371;-79
2022/08/04 13:15:23;;;;;;;;;;;;;;;;;;5057474;28;20421;-79
2022/08/04 13:17:54;;;;;;;;;;;;;;;;;;5056678;28;19920;-79
2022/08/04 13:20:23;;;;;;;;;;;;;;;;;;5056617;28;19913;-79
2022/08/04 13:22:48;;;;;;;;;;;;;;;;;;5039499;28;19963;-79
2022/08/04 13:25:14;;;;;;;;;;;;;;;;;;5057753;28;20321;-79
2022/08/04 13:27:39;;;;;;;;;;;;;;;;;;5056032;28;19924;-79
2022/08/04 13:30:04;;;;;;;;;;;;;;;;;;5056406;28;20334;-79
2022/08/04 13:32:30;;;;;;;;;;;;;;;;;;5055717;28;19928;-79
2022/08/04 13:34:55;;;;;;;;;;;;;;;;;;5056141;28;20299;-79
2022/08/04 13:37:24;;;;;;;;;;;;;;;;;;5057131;28;20284;-79
2022/08/04 13:39:49;;;;;;;;;;;;;;;;;;5055968;28;19913;-78
2022/08/04 13:42:15;;;;;;;;;;;;;;;;;;5056167;28;20008;-79
2022/08/04 13:44:42;;;;;;;;;;;;;;;;;;5039097;28;19966;-78
2022/08/04 13:47:09;;;;;;;;;;;;;;;;;;5055718;28;19967;-79
2022/08/04 13:49:34;;;;;;;;;;;;;;;;;;5055991;28;20375;-79
2022/08/04 13:52:04;;;;;;;;;;;;;;;;;;5056809;28;19916;-79
2022/08/04 13:54:40;;;;;;;;;;;;;;;;;;5055637;28;19921;-78
2022/08/04 13:57:17;;;;;;;;;;;;;;;;;;5055886;28;19913;-79
2022/08/04 13:59:43;;;;;;;;;;;;;;;;;;5055516;28;20433;-79
2022/08/04 14:02:11;;;;;;;;;;;;;;;;;;5038832;28;19955;-79
2022/08/04 14:04:41;;;;;;;;;;;;;;;;;;5055455;28;19983;-79
2022/08/04 14:07:11;;;;;;;;;;;;;;;;;;5055748;28;20328;-79
2022/08/04 14:09:37;;;;;;;;;;;;;;;;;;5055629;28;19913;-78
2022/08/04 14:12:04;;;;;;;;;;;;;;;;;;5038460;28;19919;-79
2022/08/04 14:14:30;;;;;;;;;;;;;;;;;;5055190;28;20287;-78
2022/08/04 14:16:59;;;;;;;;;;;;;;;;;;5055266;28;19913;-79
2022/08/04 14:19:24;;;;;;;;;;;;;;;;;;5054818;28;20394;-79
2022/08/04 14:21:50;;;;;;;;;;;;;;;;;;5038519;28;19964;-79
2022/08/04 14:24:22;;;;;;;;;;;;;;;;;;5038266;28;19921;-78
2022/08/04 14:26:47;;;;;;;;;;;;;;;;;;5038432;28;19913;-79
2022/08/04 14:29:13;;;;;;;;;;;;;;;;;;5054993;28;19923;-79
2022/08/04 14:31:39;;;;;;;;;;;;;;;;;;5055154;28;19921;-79
2022/08/04 14:34:04;;;;;;;;;;;;;;;;;;5038245;28;19970;-79
2022/08/04 14:36:40;;;;;;;;;;;;;;;;;;5054711;28;20352;-79
2022/08/04 14:39:06;;;;;;;;;;;;;;;;;;5055144;28;19974;-78
2022/08/04 14:41:45;;;;;;;;;;;;;;;;;;5054600;28;19916;-79
2022/08/04 14:44:11;;;;;;;;;;;;;;;;;;5038329;28;19913;-79
2022/08/04 14:46:52;;;;;;;;;;;;;;;;;;5055739;28;20012;-79
2022/08/04 14:49:17;;;;;;;;;;;;;;;;;;5054905;28;19920;-79
2022/08/04 14:51:51;;;;;;;;;;;;;;;;;;5056004;28;19917;-79
2022/08/04 14:54:24;;;;;;;;;;;;;;;;;;5054668;28;19924;-79
2022/08/04 14:56:53;;;;;;;;;;;;;;;;;;5054637;28;20389;-79
2022/08/04 14:59:18;;;;;;;;;;;;;;;;;;5054523;28;20360;-79
2022/08/04 15:01:44;;;;;;;;;;;;;;;;;;5054335;28;19964;-79
2022/08/04 15:04:09;;;;;;;;;;;;;;;;;;5054325;28;20000;-78
2022/08/04 15:06:35;;;;;;;;;;;;;;;;;;5037657;28;19917;-79
2022/08/04 15:09:05;;;;;;;;;;;;;;;;;;5055645;28;20282;-79
2022/08/04 15:11:31;;;;;;;;;;;;;;;;;;5054251;28;19920;-79
2022/08/04 15:13:57;;;;;;;;;;;;;;;;;;5037461;28;19995;-79
2022/08/04 15:16:23;;;;;;;;;;;;;;;;;;5054348;28;20016;-79
2022/08/04 15:18:49;;;;;;;;;;;;;;;;;;5054064;28;19920;-79
2022/08/04 15:21:14;;;;;;;;;;;;;;;;;;5037264;28;19921;-79
2022/08/04 15:23:39;;;;;;;;;;;;;;;;;;5053912;28;19920;-79
2022/08/04 15:26:05;;;;;;;;;;;;;;;;;;5037142;28;19927;-79
2022/08/04 15:28:30;;;;;;;;;;;;;;;;;;5054093;28;19917;-79
2022/08/04 15:30:56;;;;;;;;;;;;;;;;;;5035937;28;19917;-79
2022/08/04 15:33:23;;;;;;;;;;;;;;;;;;5055167;28;20352;-79
2022/08/04 15:35:49;;;;;;;;;;;;;;;;;;5037176;28;19948;-79
2022/08/04 15:38:23;;;;;;;;;;;;;;;;;;5036932;28;19996;-79
2022/08/04 15:40:55;;;;;;;;;;;;;;;;;;5036904;28;20261;-79
2022/08/04 15:43:39;;;;;;;;;;;;;;;;;;5037580;28;20271;-79
2022/08/04 15:46:04;;;;;;;;;;;;;;;;;;5054621;28;19917;-79
2022/08/04 15:48:30;;;;;;;;;;;;;;;;;;5036820;28;19923;-79
2022/08/04 15:50:59;;;;;;;;;;;;;;;;;;5053675;28;19919;-79
2022/08/04 15:53:38;;;;;;;;;;;;;;;;;;5153564;27;20003;-78
2022/08/04 15:56:22;;;;;;;;;;;;;;;;;;5153075;27;19926;-78
2022/08/04 15:58:48;;;;;;;;;;;;;;;;;;5153137;27;19917;-78
2022/08/04 16:01:14;;;;;;;;;;;;;;;;;;5134564;27;20369;-78
2022/08/04 16:03:40;;;;;;;;;;;;;;;;;;5134735;27;19977;-78
2022/08/04 16:06:14;;;;;;;;;;;;;;;;;;5117454;27;19913;-78
2022/08/04 16:08:54;;;;;;;;;;;;;;;;;;5153025;27;20310;-78
2022/08/04 16:11:23;;;;;;;;;;;;;;;;;;5152692;27;20396;-78
2022/08/04 16:14:04;;;;;;;;;;;;;;;;;;5152939;27;19960;-78
2022/08/04 16:16:35;;;;;;;;;;;;;;;;;;5133997;27;19911;-78
2022/08/04 16:19:15;;;;;;;;;;;;;;;;;;5133943;27;20281;-78
2022/08/04 16:21:47;;;;;;;;;;;;;;;;;;5117434;27;20393;-78
2022/08/04 16:24:15;;;;;;;;;;;;;;;;;;5152471;27;19915;-78
2022/08/04 16:26:41;;;;;;;;;;;;;;;;;;5152355;27;19912;-78
2022/08/04 16:29:22;;;;;;;;;;;;;;;;;;5133762;27;19916;-78
2022/08/04 16:32:11;;;;;;;;;;;;;;;;;;5152826;27;19958;-78
2022/08/04 16:34:47;;;;;;;;;;;;;;;;;;5133719;27;20421;-78
2022/08/04 16:37:12;;;;;;;;;;;;;;;;;;5134101;27;19971;-78
2022/08/04 16:39:39;;;;;;;;;;;;;;;;;;5116526;27;19915;-78
2022/08/04 16:42:23;;;;;;;;;;;;;;;;;;5152064;27;20338;-78
2022/08/04 16:45:20;;;;;;;;;;;;;;;;;;5152564;27;19911;-78
2022/08/04 16:47:46;;;;;;;;;;;;;;;;;;5077800;27;20006;-78
2022/08/04 16:50:11;;;;;;;;;;;;;;;;;;5152218;27;19915;-79
2022/08/04 16:52:45;;;;;;;;;;;;;;;;;;5132776;27;19924;-78
2022/08/04 16:55:11;;;;;;;;;;;;;;;;;;5151773;27;19911;-78
2022/08/04 16:57:36;;;;;;;;;;;;;;;;;;5116133;27;19963;-78
2022/08/04 17:00:03;;;;;;;;;;;;;;;;;;5116056;27;20006;-78
2022/08/04 17:02:28;;;;;;;;;;;;;;;;;;5116500;27;19964;-78
2022/08/04 17:04:54;;;;;;;;;;;;;;;;;;5102648;27;19916;-78
2022/08/04 17:07:19;;;;;;;;;;;;;;;;;;5137748;27;20365;-78
2022/08/04 17:09:48;;;;;;;;;;;;;;;;;;5102494;27;19912;-78
2022/08/04 17:12:13;;;;;;;;;;;;;;;;;;5119233;27;19983;-78
2022/08/04 17:14:38;;;;;;;;;;;;;;;;;;5119627;27;20404;-78